Time;durP1;ratioP1;P1;durP2;ratioP2;P2;SDS_P1;SDS_P2;PMS_P1;PMS_P2;Temp;Humidity;BMP_temperature;BMP_pressure;BME280_temperature;BME280_humidity;BME280_pressure;Samples;Min_cycle;Max_cycle;Signal;HPM_P1;HPM_P2
2023/08/12 00:01:47;;;;;;;;;6.00;4.00;;;;;24.05;59.71;101357.56;4976389;28;46161;-49
2023/08/12 00:04:14;;;;;;;;;4.25;4.00;;;;;24.07;59.82;101353.00;4976310;28;45192;-44
2023/08/12 00:06:40;;;;;;;;;3.75;3.00;;;;;24.07;59.96;101345.06;4976265;28;45350;-41
2023/08/12 00:09:05;;;;;;;;;5.00;5.00;;;;;24.08;59.71;101340.59;4976564;28;45496;-48
2023/08/12 00:11:30;;;;;;;;;4.00;3.00;;;;;24.09;59.87;101331.72;4976303;28;46039;-41
2023/08/12 00:13:56;;;;;;;;;3.00;3.00;;;;;24.11;59.68;101328.97;4976101;28;58099;-44
2023/08/12 00:16:21;;;;;;;;;4.25;4.00;;;;;24.09;60.08;101327.25;4976549;28;45333;-42
2023/08/12 00:18:47;;;;;;;;;4.00;3.50;;;;;24.11;59.64;101324.53;4976559;28;45314;-43
2023/08/12 00:21:12;;;;;;;;;3.25;3.25;;;;;24.14;59.87;101312.88;4976136;28;47120;-47
2023/08/12 00:23:44;;;;;;;;;7.00;5.00;;;;;24.14;59.64;101320.84;4975651;28;54979;-45
2023/08/12 00:26:10;;;;;;;;;5.50;3.25;;;;;24.13;60.27;101317.34;4976226;28;45492;-44
2023/08/12 00:28:35;;;;;;;;;4.00;4.00;;;;;24.15;60.18;101314.59;4976551;28;45376;-48
2023/08/12 00:31:00;;;;;;;;;4.00;3.50;;;;;24.15;59.57;101314.59;4976058;28;46186;-51
2023/08/12 00:33:25;;;;;;;;;4.50;4.00;;;;;24.16;60.31;101308.34;4974338;28;60497;-42
2023/08/12 00:35:51;;;;;;;;;3.00;3.00;;;;;24.16;60.17;101305.69;4975845;28;49631;-39
2023/08/12 00:38:16;;;;;;;;;5.00;5.00;;;;;24.16;60.12;101305.69;4976379;28;45468;-43
2023/08/12 00:40:42;;;;;;;;;5.00;4.00;;;;;24.14;59.84;101303.16;4958412;28;46049;-43
2023/08/12 00:43:09;;;;;;;;;5.25;4.00;;;;;24.16;59.60;101306.53;4976022;28;45411;-38
2023/08/12 00:45:34;;;;;;;;;6.25;6.00;;;;;24.18;59.98;101309.13;4976005;28;45222;-42
2023/08/12 00:48:00;;;;;;;;;4.00;3.75;;;;;24.17;59.65;101297.66;4976326;28;45868;-38
2023/08/12 00:50:25;;;;;;;;;3.50;3.50;;;;;24.18;59.89;101298.53;4960262;28;46150;-40
2023/08/12 00:52:51;;;;;;;;;6.00;5.00;;;;;24.19;59.91;101301.06;4979163;28;45351;-41
2023/08/12 00:55:17;;;;;;;;;4.00;4.00;;;;;24.20;59.53;101301.91;4979307;28;45178;-47
2023/08/12 00:57:43;;;;;;;;;6.00;4.00;;;;;24.19;59.50;101300.22;4979377;28;45421;-44
2023/08/12 01:00:09;;;;;;;;;4.75;3.50;;;;;24.22;59.96;101305.31;4979036;28;46079;-49
2023/08/12 01:02:35;;;;;;;;;1.75;1.75;;;;;24.22;59.55;101305.31;4979057;28;45776;-45
2023/08/12 01:05:00;;;;;;;;;4.50;2.75;;;;;24.22;60.26;101303.53;4979481;28;45409;-38
2023/08/12 01:07:26;;;;;;;;;4.75;4.75;;;;;24.20;59.70;101302.75;4962096;28;45428;-39
2023/08/12 01:09:52;;;;;;;;;5.75;4.00;;;;;24.21;60.07;101309.75;4978824;28;45357;-42
2023/08/12 01:12:28;;;;;;;;;7.50;4.00;;;;;24.21;59.87;101306.25;4978752;28;45502;-47
2023/08/12 01:15:15;;;;;;;;;4.75;4.50;;;;;24.19;59.50;101285.16;4978941;28;45294;-49
2023/08/12 01:17:42;;;;;;;;;4.00;3.75;;;;;24.19;59.57;101281.69;4978941;28;45480;-55
2023/08/12 01:20:14;;;;;;;;;4.00;4.00;;;;;24.21;59.58;101293.00;4978850;28;45246;-53
2023/08/12 01:22:40;;;;;;;;;4.00;4.00;;;;;24.21;60.25;101300.94;4978900;28;45211;-54
2023/08/12 01:25:07;;;;;;;;;4.25;4.25;;;;;24.21;59.87;101300.94;4978891;28;45244;-54
2023/08/12 01:27:37;;;;;;;;;4.75;4.75;;;;;24.23;59.96;101289.34;4979137;28;45256;-44
2023/08/12 01:30:05;;;;;;;;;4.00;4.00;;;;;24.24;59.70;101292.81;4978706;28;46437;-42
2023/08/12 01:32:45;;;;;;;;;6.00;4.25;;;;;24.24;60.19;101290.16;4978910;28;45263;-49
2023/08/12 01:35:23;;;;;;;;;4.00;3.25;;;;;24.24;60.07;101298.13;4978774;28;45465;-37
2023/08/12 01:37:51;;;;;;;;;4.00;4.00;;;;;24.23;60.11;101299.94;4978655;28;45435;-37
2023/08/12 01:40:19;;;;;;;;;4.50;3.25;;;;;24.24;60.37;101295.47;4977057;28;46548;-40
2023/08/12 01:42:45;;;;;;;;;3.50;3.50;;;;;24.24;59.74;101284.88;4978380;28;45318;-38
2023/08/12 01:45:11;;;;;;;;;5.50;5.00;;;;;24.22;60.21;101284.09;4978567;28;45484;-38
2023/08/12 01:47:36;;;;;;;;;4.00;4.00;;;;;24.21;60.06;101282.41;4978552;28;45605;-39
2023/08/12 01:50:01;;;;;;;;;4.25;3.50;;;;;24.21;59.74;101282.41;4978653;28;46011;-43
2023/08/12 01:52:27;;;;;;;;;4.00;4.00;;;;;24.21;59.78;101279.75;4977658;28;57632;-37
2023/08/12 01:54:52;;;;;;;;;2.00;2.00;;;;;24.22;59.82;101271.75;4978269;28;45435;-48
2023/08/12 01:57:17;;;;;;;;;4.00;2.00;;;;;24.23;60.36;101275.22;4977854;28;50689;-39
2023/08/12 01:59:46;;;;;;;;;3.00;3.00;;;;;24.21;60.08;101255.91;4978150;28;46213;-42
2023/08/12 02:02:11;;;;;;;;;4.00;4.00;;;;;24.22;60.33;101260.28;4977303;28;45325;-41
2023/08/12 02:04:37;;;;;;;;;5.00;4.00;;;;;24.21;60.40;101255.91;4978179;28;45275;-40
2023/08/12 02:07:03;;;;;;;;;4.25;3.25;;;;;24.21;59.83;101256.78;4978544;28;45507;-40
2023/08/12 02:09:29;;;;;;;;;4.00;4.00;;;;;24.19;59.95;101263.97;4977937;28;46562;-39
2023/08/12 02:11:54;;;;;;;;;5.00;4.00;;;;;24.21;60.67;101250.63;4960320;28;47420;-45
2023/08/12 02:14:19;;;;;;;;;6.00;4.00;;;;;24.19;60.02;101258.69;4978157;28;45930;-46
2023/08/12 02:16:45;;;;;;;;;3.00;3.00;;;;;24.18;60.21;101261.44;4978275;28;45333;-40
2023/08/12 02:19:10;;;;;;;;;4.75;3.50;;;;;24.18;60.41;101269.38;4977718;28;46713;-42
2023/08/12 02:21:35;;;;;;;;;3.00;3.00;;;;;24.18;60.64;101266.75;4977834;28;45270;-40
2023/08/12 02:24:01;;;;;;;;;4.00;4.00;;;;;24.16;60.11;101258.88;4960680;28;45587;-42
2023/08/12 02:26:26;;;;;;;;;3.50;3.50;;;;;24.16;60.75;101253.56;4977918;28;45396;-42
2023/08/12 02:28:51;;;;;;;;;4.00;3.25;;;;;24.17;60.29;101252.63;4977629;28;45374;-38
2023/08/12 02:31:17;;;;;;;;;2.25;2.25;;;;;24.16;60.11;101260.69;4977548;28;45385;-40
2023/08/12 02:33:43;;;;;;;;;3.25;3.00;;;;;24.16;60.12;101269.47;4977669;28;45427;-40
2023/08/12 02:36:08;;;;;;;;;5.00;4.00;;;;;24.16;60.35;101263.34;4977717;28;45582;-43
2023/08/12 02:38:33;;;;;;;;;5.00;2.50;;;;;24.15;60.46;101258.97;4977800;28;46034;-39
2023/08/12 02:40:59;;;;;;;;;3.00;2.75;;;;;24.15;60.62;101258.97;4977558;28;45366;-38
2023/08/12 02:43:24;;;;;;;;;2.50;2.50;;;;;24.15;60.95;101249.22;4977585;28;45567;-40
2023/08/12 02:45:49;;;;;;;;;2.00;2.00;;;;;24.15;60.90;101256.34;4977690;28;45503;-43
2023/08/12 02:48:15;;;;;;;;;3.50;3.50;;;;;24.17;60.24;101254.44;4977246;28;46075;-41
2023/08/12 02:50:40;;;;;;;;;2.00;2.00;;;;;24.16;61.01;101252.75;4977379;28;45321;-38
2023/08/12 02:53:06;;;;;;;;;2.50;2.50;;;;;24.13;60.81;101258.22;4977009;28;54443;-39
2023/08/12 02:55:32;;;;;;;;;2.00;2.00;;;;;24.13;60.96;101258.22;4977796;28;45251;-39
2023/08/12 02:57:58;;;;;;;;;3.75;2.50;;;;;24.15;60.91;101251.03;4977080;28;46688;-38
2023/08/12 03:00:24;;;;;;;;;2.00;2.00;;;;;24.15;60.89;101246.56;4977340;28;45303;-49
2023/08/12 03:02:49;;;;;;;;;2.50;2.00;;;;;24.17;60.83;101241.19;4959928;28;45783;-51
2023/08/12 03:05:15;;;;;;;;;2.00;2.00;;;;;24.16;60.39;101242.97;4977410;28;45401;-54
2023/08/12 03:07:40;;;;;;;;;4.00;3.00;;;;;24.18;60.29;101240.25;4976953;28;45352;-53
2023/08/12 03:10:06;;;;;;;;;2.00;2.00;;;;;24.19;60.44;101241.97;4977383;28;45254;-51
2023/08/12 03:12:31;;;;;;;;;2.50;2.50;;;;;24.19;60.37;101239.31;4977092;28;45382;-54
2023/08/12 03:14:57;;;;;;;;;3.25;2.00;;;;;24.20;60.27;101240.97;4975939;28;45306;-55
2023/08/12 03:17:22;;;;;;;;;4.25;2.25;;;;;24.19;60.54;101239.31;4976905;28;46141;-52
2023/08/12 03:19:48;;;;;;;;;2.00;2.00;;;;;24.21;60.02;101234.75;4976963;28;45394;-47
2023/08/12 03:22:13;;;;;;;;;2.00;2.00;;;;;24.23;60.90;101238.13;4976870;28;45397;-53
2023/08/12 03:24:40;;;;;;;;;1.25;1.00;;;;;24.22;60.11;101233.78;4978730;28;45640;-47
2023/08/12 03:27:05;;;;;;;;;2.00;2.00;;;;;24.23;60.26;101233.72;4996668;28;46313;-54
2023/08/12 03:29:30;;;;;;;;;3.00;1.75;;;;;24.21;59.94;101221.50;4996545;28;45293;-38
2023/08/12 03:31:56;;;;;;;;;2.00;2.00;;;;;24.21;60.57;101238.25;4996615;28;45345;-48
2023/08/12 03:34:21;;;;;;;;;1.00;1.00;;;;;24.19;60.59;101226.91;4996693;28;45533;-36
2023/08/12 03:36:48;;;;;;;;;2.75;2.00;;;;;24.19;60.53;101234.00;4995857;28;57489;-39
2023/08/12 03:39:13;;;;;;;;;1.25;1.25;;;;;24.19;60.63;101226.06;4996279;28;45584;-39
2023/08/12 03:41:39;;;;;;;;;4.00;2.25;;;;;24.18;60.41;101219.06;4996737;28;45321;-38
2023/08/12 03:44:04;;;;;;;;;3.25;2.00;;;;;24.19;60.42;101223.41;4996956;28;45384;-47
2023/08/12 03:46:30;;;;;;;;;1.00;1.00;;;;;24.19;60.30;101220.78;4996219;28;45547;-55
2023/08/12 03:48:55;;;;;;;;;2.00;1.25;;;;;24.19;60.92;101216.31;4996294;28;45345;-45
2023/08/12 03:51:21;;;;;;;;;2.00;2.00;;;;;24.19;60.62;101220.78;4996348;28;45504;-56
2023/08/12 03:53:46;;;;;;;;;2.00;1.00;;;;;24.19;60.89;101216.31;4996307;28;45489;-45
2023/08/12 03:56:14;;;;;;;;;2.00;2.00;;;;;24.19;60.75;101220.78;4996066;28;45441;-45
2023/08/12 03:58:40;;;;;;;;;4.00;2.00;;;;;24.19;60.53;101213.66;4996471;28;45838;-37
2023/08/12 04:01:06;;;;;;;;;2.25;1.25;;;;;24.20;60.85;101211.84;4996564;28;45333;-46
2023/08/12 04:03:31;;;;;;;;;2.00;2.00;;;;;24.19;60.17;101205.72;4996446;28;45637;-41
2023/08/12 04:05:56;;;;;;;;;1.50;1.50;;;;;24.19;60.61;101207.53;4995410;28;57800;-42
2023/08/12 04:08:23;;;;;;;;;2.00;2.00;;;;;24.19;60.77;101216.31;4962123;28;45472;-39
2023/08/12 04:10:48;;;;;;;;;4.25;4.25;;;;;24.19;60.59;101203.06;4996268;28;45279;-45
2023/08/12 04:13:14;;;;;;;;;5.00;5.00;;;;;24.19;60.30;101204.88;4996066;28;45526;-35
2023/08/12 04:15:41;;;;;;;;;10.00;10.00;;;;;24.22;60.34;101194.94;4996101;28;47226;-42
2023/08/12 04:18:06;;;;;;;;;11.25;11.25;;;;;24.20;60.52;101188.00;4995931;28;45330;-41
2023/08/12 04:20:32;;;;;;;;;12.50;12.50;;;;;24.23;60.23;101185.16;4996038;28;45830;-36
2023/08/12 04:22:57;;;;;;;;;11.75;11.25;;;;;24.23;60.51;101187.81;4996100;28;45318;-39
2023/08/12 04:25:24;;;;;;;;;8.00;8.00;;;;;24.23;60.53;101191.34;4997043;28;45485;-37
2023/08/12 04:27:49;;;;;;;;;6.50;6.50;;;;;24.22;60.61;101181.69;4981607;28;45616;-40
2023/08/12 04:30:18;;;;;;;;;6.25;6.00;;;;;24.22;61.06;101180.81;4999247;28;45333;-37
2023/08/12 04:32:43;;;;;;;;;4.75;4.75;;;;;24.21;61.17;101185.28;4999256;28;45551;-37
2023/08/12 04:35:09;;;;;;;;;5.75;4.00;;;;;24.21;60.94;101179.13;4999291;28;45603;-37
2023/08/12 04:37:36;;;;;;;;;4.00;4.00;;;;;24.20;61.01;101174.78;4998969;28;45346;-43
2023/08/12 04:40:03;;;;;;;;;5.00;5.00;;;;;24.19;60.80;101178.41;4998970;28;45460;-43
2023/08/12 04:42:28;;;;;;;;;4.50;4.25;;;;;24.19;61.01;101181.03;4999203;28;45422;-44
2023/08/12 04:44:54;;;;;;;;;3.00;3.00;;;;;24.17;61.18;101185.59;4981218;28;47217;-45
2023/08/12 04:47:19;;;;;;;;;3.00;3.00;;;;;24.16;60.94;101182.06;4998719;28;45338;-36
2023/08/12 04:49:44;;;;;;;;;3.00;1.50;;;;;24.14;61.18;101180.47;4981250;28;45238;-37
2023/08/12 04:52:10;;;;;;;;;3.00;3.00;;;;;24.15;61.21;101183.00;4999229;28;45713;-37
2023/08/12 04:54:35;;;;;;;;;2.25;2.25;;;;;24.14;61.00;101189.28;4998513;28;51070;-41
2023/08/12 04:57:01;;;;;;;;;2.00;2.00;;;;;24.16;60.93;101191.81;4998514;28;45469;-39
2023/08/12 04:59:26;;;;;;;;;3.00;3.00;;;;;24.16;61.44;101189.19;4998810;28;45435;-41
2023/08/12 05:01:51;;;;;;;;;2.00;2.00;;;;;24.16;61.06;101189.19;4998974;28;45261;-38
2023/08/12 05:04:17;;;;;;;;;1.25;1.25;;;;;24.15;61.81;101192.78;4998122;28;52483;-38
2023/08/12 05:06:42;;;;;;;;;2.00;2.00;;;;;24.13;61.79;101186.72;4998550;28;47983;-41
2023/08/12 05:09:08;;;;;;;;;0.00;0.00;;;;;24.11;61.33;101188.63;4981094;28;45337;-41
2023/08/12 05:11:33;;;;;;;;;1.00;1.00;;;;;24.08;61.82;101187.91;4998658;28;45495;-44
2023/08/12 05:13:58;;;;;;;;;3.50;2.00;;;;;24.08;62.04;101187.03;4998255;28;45925;-39
2023/08/12 05:16:24;;;;;;;;;1.00;1.00;;;;;24.07;61.41;101183.53;4998265;28;45550;-39
2023/08/12 05:18:49;;;;;;;;;1.00;1.00;;;;;24.06;62.17;101192.44;4998047;28;52174;-43
2023/08/12 05:21:14;;;;;;;;;1.50;1.50;;;;;24.05;62.30;101188.09;4998574;28;45519;-39
2023/08/12 05:23:40;;;;;;;;;1.00;1.00;;;;;24.06;61.82;101189.78;4998116;28;46447;-44
2023/08/12 05:26:05;;;;;;;;;2.75;1.00;;;;;24.07;62.15;101196.78;4998372;28;45294;-38
2023/08/12 05:28:30;;;;;;;;;1.00;1.00;;;;;24.08;61.54;101198.47;4998354;28;46212;-45
2023/08/12 05:30:56;;;;;;;;;0.50;0.50;;;;;24.08;61.53;101201.13;4998039;28;51126;-50
2023/08/12 05:33:21;;;;;;;;;1.75;1.00;;;;;24.11;61.27;101202.72;4997942;28;46340;-53
2023/08/12 05:35:48;;;;;;;;;0.25;0.25;;;;;24.09;61.72;101194.88;4997470;28;45376;-46
2023/08/12 05:38:13;;;;;;;;;0.75;0.75;;;;;24.13;61.54;101197.31;4997948;28;45459;-37
2023/08/12 05:40:38;;;;;;;;;1.00;1.00;;;;;24.13;61.65;101184.06;4998398;28;45412;-38
2023/08/12 05:43:04;;;;;;;;;1.00;1.00;;;;;24.16;61.17;101194.47;4997797;28;45341;-36
2023/08/12 05:45:30;;;;;;;;;1.00;1.00;;;;;24.15;61.49;101198.91;4997328;28;64002;-38
2023/08/12 05:47:55;;;;;;;;;1.00;1.00;;;;;24.16;61.03;101213.00;4997972;28;45372;-36
2023/08/12 05:50:21;;;;;;;;;0.25;0.25;;;;;24.17;61.66;101215.56;4998217;28;45353;-38
2023/08/12 05:52:46;;;;;;;;;0.75;0.75;;;;;24.17;61.09;101218.19;4998026;28;45706;-38
2023/08/12 05:55:11;;;;;;;;;0.00;0.00;;;;;24.16;61.57;101210.38;4997838;28;45390;-36
2023/08/12 05:57:37;;;;;;;;;0.00;0.00;;;;;24.17;61.40;101201.47;4998058;28;45250;-38
2023/08/12 06:00:03;;;;;;;;;1.00;1.00;;;;;24.16;61.36;101203.25;4998117;28;45455;-35
2023/08/12 06:02:28;;;;;;;;;2.00;0.00;;;;;24.16;61.39;101205.06;4997406;28;46140;-36
2023/08/12 06:04:53;;;;;;;;;1.00;1.00;;;;;24.13;61.84;101203.47;4997557;28;45377;-43
2023/08/12 06:07:19;;;;;;;;;0.00;0.00;;;;;24.13;61.27;101200.84;4997804;28;45317;-38
2023/08/12 06:09:44;;;;;;;;;1.00;0.75;;;;;24.12;61.42;101200.91;4998383;28;45491;-45
2023/08/12 06:12:09;;;;;;;;;1.00;0.00;;;;;24.12;61.68;101208.84;4997542;28;46965;-47
2023/08/12 06:14:38;;;;;;;;;0.00;0.00;;;;;24.11;61.60;101202.72;4997668;28;45297;-46
2023/08/12 06:17:04;;;;;;;;;0.00;0.00;;;;;24.11;61.89;101204.50;4997653;28;45365;-42
2023/08/12 06:19:29;;;;;;;;;0.25;0.25;;;;;24.12;61.08;101198.25;4998031;28;45612;-38
2023/08/12 06:21:55;;;;;;;;;0.75;0.75;;;;;24.12;61.71;101195.63;4997461;28;46130;-42
2023/08/12 06:24:20;;;;;;;;;1.50;0.50;;;;;24.14;60.96;101196.38;4997567;28;45246;-45
2023/08/12 06:26:46;;;;;;;;;0.00;0.00;;;;;24.14;60.99;101196.38;4997725;28;45305;-43
2023/08/12 06:29:11;;;;;;;;;1.00;1.00;;;;;24.13;61.07;101190.25;4997653;28;45336;-41
2023/08/12 06:31:36;;;;;;;;;0.25;0.25;;;;;24.14;61.12;101193.72;4996528;28;65705;-45
2023/08/12 06:34:01;;;;;;;;;0.00;0.00;;;;;24.15;61.22;101192.78;4997173;28;45317;-46
2023/08/12 06:36:27;;;;;;;;;0.00;0.00;;;;;24.14;61.53;101201.66;4997544;28;45494;-51
2023/08/12 06:38:52;;;;;;;;;0.00;0.00;;;;;24.13;61.25;101198.19;4987454;28;45520;-46
2023/08/12 06:41:18;;;;;;;;;1.00;1.00;;;;;24.13;60.98;101202.63;4976957;28;45252;-47
2023/08/12 06:43:43;;;;;;;;;0.00;0.00;;;;;24.14;61.48;101202.53;4976411;28;52688;-47
2023/08/12 06:46:08;;;;;;;;;0.50;0.50;;;;;24.15;61.02;101206.00;4976345;28;50448;-38
2023/08/12 06:48:33;;;;;;;;;0.75;0.75;;;;;24.15;61.41;101193.63;4976556;28;45532;-39
2023/08/12 06:50:59;;;;;;;;;0.00;0.00;;;;;24.15;60.72;101198.06;4976631;28;46019;-42
2023/08/12 06:53:26;;;;;;;;;1.50;0.00;;;;;24.15;61.05;101193.63;4976335;28;45379;-47
2023/08/12 06:55:52;;;;;;;;;0.00;0.00;;;;;24.17;61.01;101196.19;4976619;28;45442;-41
2023/08/12 06:58:17;;;;;;;;;0.00;0.00;;;;;24.16;61.13;101183.88;4976437;28;52810;-44
2023/08/12 07:00:43;;;;;;;;;2.00;1.00;;;;;24.15;61.39;101198.91;4976421;28;45377;-43
2023/08/12 07:03:08;;;;;;;;;0.00;0.00;;;;;24.15;60.91;101209.50;4976381;28;45423;-49
2023/08/12 07:05:34;;;;;;;;;0.75;0.75;;;;;24.16;60.90;101207.72;4976539;28;45401;-46
2023/08/12 07:07:59;;;;;;;;;0.00;0.00;;;;;24.15;60.75;101209.50;4976622;28;45547;-44
2023/08/12 07:10:25;;;;;;;;;1.25;0.00;;;;;24.17;61.15;101206.78;4976131;28;51736;-39
2023/08/12 07:12:50;;;;;;;;;1.00;1.00;;;;;24.14;60.89;101209.63;4976559;28;45184;-38
2023/08/12 07:15:15;;;;;;;;;0.00;0.00;;;;;24.15;61.49;101211.31;4975272;28;45421;-39
2023/08/12 07:17:41;;;;;;;;;0.00;0.00;;;;;24.16;61.15;101219.16;4976613;28;45229;-43
2023/08/12 07:20:07;;;;;;;;;0.00;0.00;;;;;24.16;61.41;101215.66;4974900;28;46114;-40
2023/08/12 07:22:32;;;;;;;;;1.25;0.25;;;;;24.15;60.97;101221.91;4976314;28;45444;-39
2023/08/12 07:24:59;;;;;;;;;0.00;0.00;;;;;24.15;61.17;101227.19;4977048;28;45371;-44
2023/08/12 07:27:25;;;;;;;;;0.00;0.00;;;;;24.15;61.22;101229.84;4959826;28;45377;-37
2023/08/12 07:29:51;;;;;;;;;0.75;0.75;;;;;24.15;61.06;101237.78;4977146;28;45429;-45
2023/08/12 07:32:17;;;;;;;;;0.00;0.00;;;;;24.16;61.11;101248.28;4976627;28;45417;-42
2023/08/12 07:34:42;;;;;;;;;0.00;0.00;;;;;24.15;60.71;101249.22;4976886;28;45394;-39
2023/08/12 07:37:08;;;;;;;;;0.00;0.00;;;;;24.15;61.10;101262.47;4977032;28;45613;-38
2023/08/12 07:39:33;;;;;;;;;0.25;0.25;;;;;24.15;60.63;101266.94;4976705;28;46055;-53
2023/08/12 07:41:58;;;;;;;;;1.00;1.00;;;;;24.15;61.09;101280.16;4976794;28;45349;-53
2023/08/12 07:44:24;;;;;;;;;1.50;0.00;;;;;24.14;60.61;101273.16;4977182;28;45333;-39
2023/08/12 07:46:49;;;;;;;;;0.00;0.00;;;;;24.14;60.17;101275.81;4977349;28;45492;-51
2023/08/12 07:49:16;;;;;;;;;0.75;0.75;;;;;24.13;60.52;101274.13;4976351;28;51519;-45
2023/08/12 07:51:41;;;;;;;;;1.00;1.00;;;;;24.12;59.73;101283.00;4976535;28;45723;-43
2023/08/12 07:54:06;;;;;;;;;0.25;0.00;;;;;24.11;59.78;101278.66;4976615;28;45705;-39
2023/08/12 07:56:32;;;;;;;;;0.50;0.00;;;;;24.07;59.84;101281.53;4976715;28;45504;-38
2023/08/12 07:58:57;;;;;;;;;1.00;1.00;;;;;24.06;59.45;101284.25;4976307;28;47609;-45
2023/08/12 08:01:22;;;;;;;;;1.00;1.00;;;;;24.06;59.46;101285.09;4978720;28;52054;-44
2023/08/12 08:03:48;;;;;;;;;1.00;1.00;;;;;24.06;59.72;101284.25;4980033;28;45591;-52
2023/08/12 08:06:13;;;;;;;;;1.00;1.00;;;;;24.02;59.76;101288.88;4979514;28;49516;-41
2023/08/12 08:08:39;;;;;;;;;0.75;0.00;;;;;24.02;59.50;101294.19;4979454;28;53778;-41
2023/08/12 08:11:05;;;;;;;;;0.50;0.25;;;;;24.02;59.75;101298.66;4962323;28;45281;-38
2023/08/12 08:13:30;;;;;;;;;1.00;1.00;;;;;24.02;59.80;101298.66;4979978;28;45396;-40
2023/08/12 08:15:55;;;;;;;;;1.00;1.00;;;;;24.00;59.77;101293.44;4962932;28;45595;-52
2023/08/12 08:18:21;;;;;;;;;0.50;0.50;;;;;24.00;59.56;101301.38;4979744;28;45332;-48
2023/08/12 08:20:46;;;;;;;;;1.00;1.00;;;;;23.98;59.64;101297.13;4979673;28;45473;-49
2023/08/12 08:23:11;;;;;;;;;3.00;1.25;;;;;23.96;59.71;101299.88;4979749;28;45348;-57
2023/08/12 08:25:37;;;;;;;;;0.75;0.75;;;;;23.92;59.81;101285.09;4979876;28;45299;-57
2023/08/12 08:28:03;;;;;;;;;1.00;1.00;;;;;23.90;59.65;101287.84;4979487;28;45427;-53
2023/08/12 08:30:29;;;;;;;;;3.00;0.00;;;;;23.89;59.98;101287.91;4979535;28;45896;-47
2023/08/12 08:32:54;;;;;;;;;1.00;1.00;;;;;23.87;59.52;101292.47;4979826;28;45412;-51
2023/08/12 08:35:19;;;;;;;;;2.00;2.00;;;;;23.88;59.73;101296.81;4962241;28;45410;-40
2023/08/12 08:37:45;;;;;;;;;0.50;0.50;;;;;23.85;59.59;101291.72;4979345;28;45370;-42
2023/08/12 08:40:11;;;;;;;;;1.50;1.00;;;;;23.85;59.49;101302.31;4979312;28;45198;-40
2023/08/12 08:42:37;;;;;;;;;2.00;2.00;;;;;23.84;60.20;101306.75;4961925;28;45298;-39
2023/08/12 08:45:10;;;;;;;;;2.00;2.00;;;;;23.84;59.80;101309.38;4979551;28;45263;-45
2023/08/12 08:47:36;;;;;;;;;1.75;1.00;;;;;23.85;59.47;101302.31;4979388;28;45306;-49
2023/08/12 08:50:02;;;;;;;;;1.00;1.00;;;;;23.85;59.17;101299.66;4979322;28;45408;-46
2023/08/12 08:52:28;;;;;;;;;1.25;1.25;;;;;23.83;59.75;101296.25;4979371;28;45295;-41
2023/08/12 08:54:54;;;;;;;;;1.00;1.00;;;;;23.83;59.91;101302.38;4979665;28;45218;-42
2023/08/12 08:57:19;;;;;;;;;0.50;0.00;;;;;23.84;59.88;101297.97;4961605;28;45263;-43
2023/08/12 08:59:45;;;;;;;;;1.00;1.00;;;;;23.86;59.28;101309.31;4978999;28;45165;-43
2023/08/12 09:02:19;;;;;;;;;1.75;0.75;;;;;23.88;59.83;101304.75;4961578;28;45485;-38
2023/08/12 09:04:45;;;;;;;;;1.00;1.00;;;;;23.89;59.38;101296.72;4979329;28;45176;-38
2023/08/12 09:07:12;;;;;;;;;3.50;1.00;;;;;23.92;59.46;101300.97;4978848;28;45452;-39
2023/08/12 09:09:41;;;;;;;;;1.00;1.00;;;;;23.93;59.10;101307.97;4978998;28;45390;-38
2023/08/12 09:12:07;;;;;;;;;1.00;1.00;;;;;23.92;59.13;101301.81;4978727;28;45303;-38
2023/08/12 09:14:34;;;;;;;;;3.00;1.50;;;;;23.96;59.59;101310.47;4979098;28;45262;-38
2023/08/12 09:17:00;;;;;;;;;1.75;1.00;;;;;23.97;58.92;101292.78;4979195;28;45760;-40
2023/08/12 09:19:25;;;;;;;;;1.00;1.00;;;;;23.97;59.13;101306.88;4979114;28;45289;-43
2023/08/12 09:21:54;;;;;;;;;0.75;0.75;;;;;24.00;59.42;101298.72;4978781;28;45266;-42
2023/08/12 09:24:26;;;;;;;;;1.00;1.00;;;;;24.02;58.84;101306.59;4979016;28;45878;-42
2023/08/12 09:26:58;;;;;;;;;2.50;1.25;;;;;24.04;59.35;101302.03;4978649;28;46183;-43
2023/08/12 09:29:28;;;;;;;;;4.75;1.75;;;;;24.05;58.68;101307.25;4978642;28;45282;-43
2023/08/12 09:31:54;;;;;;;;;0.00;0.00;;;;;24.06;59.13;101301.00;4977332;28;45359;-38
2023/08/12 09:34:19;;;;;;;;;1.50;1.00;;;;;24.08;59.03;101295.59;4960908;28;45400;-41
2023/08/12 09:36:46;;;;;;;;;0.50;0.50;;;;;24.08;58.84;101304.41;4978470;28;46622;-44
2023/08/12 09:39:13;;;;;;;;;2.00;1.00;;;;;24.11;58.57;101305.13;4978487;28;45264;-50
2023/08/12 09:41:39;;;;;;;;;2.75;0.00;;;;;24.13;58.27;101311.19;4978746;28;45184;-51
2023/08/12 09:44:05;;;;;;;;;1.00;1.00;;;;;24.15;58.70;101312.78;4978596;28;45219;-54
2023/08/12 09:46:33;;;;;;;;;1.00;1.00;;;;;24.17;58.01;101312.72;4978506;28;46354;-52
2023/08/12 09:48:58;;;;;;;;;1.50;1.00;;;;;24.17;58.58;101313.53;4978606;28;45676;-54
2023/08/12 09:51:24;;;;;;;;;2.00;1.00;;;;;24.19;58.29;101316.13;4978409;28;45363;-43
2023/08/12 09:53:50;;;;;;;;;1.50;1.25;;;;;24.18;58.11;101320.53;4978421;28;45421;-51
2023/08/12 09:56:19;;;;;;;;;1.00;1.00;;;;;24.21;58.11;101325.66;4978368;28;46176;-43
2023/08/12 09:58:50;;;;;;;;;1.00;0.50;;;;;24.21;57.64;101330.09;4978300;28;45464;-51
2023/08/12 10:01:22;;;;;;;;;0.50;0.00;;;;;24.21;57.85;101325.66;4978340;28;45372;-51
2023/08/12 10:03:51;;;;;;;;;1.00;1.00;;;;;24.23;57.58;101336.13;4978335;28;45512;-48
2023/08/12 10:06:17;;;;;;;;;1.00;1.00;;;;;24.19;57.25;101330.19;4977786;28;46168;-46
2023/08/12 10:08:43;;;;;;;;;2.25;0.50;;;;;24.21;57.88;101324.78;4978117;28;46104;-44
2023/08/12 10:11:10;;;;;;;;;2.00;0.25;;;;;24.22;57.42;101322.06;4978216;28;45251;-52
2023/08/12 10:13:36;;;;;;;;;1.00;1.00;;;;;24.24;57.43;101316.66;4978186;28;45651;-45
2023/08/12 10:16:02;;;;;;;;;2.25;0.00;;;;;24.24;57.93;101314.88;4978156;28;46276;-46
2023/08/12 10:18:30;;;;;;;;;1.00;1.00;;;;;24.27;57.54;101315.59;4977875;28;45330;-47
2023/08/12 10:20:59;;;;;;;;;1.00;1.00;;;;;24.27;57.20;101313.81;4978225;28;45261;-46
2023/08/12 10:23:25;;;;;;;;;1.00;1.00;;;;;24.30;57.27;101315.41;4976722;28;45386;-45
2023/08/12 10:25:54;;;;;;;;;1.00;1.00;;;;;24.31;57.81;101315.31;4977679;28;46224;-39
2023/08/12 10:28:19;;;;;;;;;2.00;1.00;;;;;24.32;57.15;101316.16;4977645;28;45656;-43
2023/08/12 10:30:45;;;;;;;;;2.25;1.00;;;;;24.34;57.32;101319.56;4977853;28;45298;-37
2023/08/12 10:33:11;;;;;;;;;1.00;1.00;;;;;24.36;57.18;101313.22;4977794;28;45540;-38
2023/08/12 10:35:43;;;;;;;;;2.00;2.00;;;;;24.37;57.40;101314.94;4977470;28;46335;-50
2023/08/12 10:38:08;;;;;;;;;10.75;8.75;;;;;24.38;56.97;101306.03;4977380;28;45887;-52
2023/08/12 10:40:34;;;;;;;;;10.00;9.75;;;;;24.41;57.19;101318.22;4976625;28;45384;-51
2023/08/12 10:42:59;;;;;;;;;19.50;17.75;;;;;24.42;57.29;101311.13;4977999;28;45588;-41
2023/08/12 10:45:41;;;;;;;;;22.00;21.00;;;;;24.44;57.36;101311.88;4977607;28;45434;-51
2023/08/12 10:48:21;;;;;;;;;28.50;24.00;;;;;24.45;57.55;101305.63;4959806;28;45803;-52
2023/08/12 10:50:53;;;;;;;;;25.00;21.50;;;;;24.48;57.52;101316.03;4977508;28;45243;-55
2023/08/12 10:53:29;;;;;;;;;19.00;14.75;;;;;24.48;57.77;101313.38;4977475;28;45372;-51
2023/08/12 10:55:57;;;;;;;;;19.00;14.50;;;;;24.49;57.71;101305.31;4977404;28;45406;-55
2023/08/12 10:58:45;;;;;;;;;9.75;9.75;;;;;24.50;57.38;101314.13;4976406;28;45415;-54
2023/08/12 11:01:18;;;;;;;;;9.00;9.00;;;;;24.51;57.14;101307.88;4977109;28;45447;-52
2023/08/12 11:03:44;;;;;;;;;10.00;6.00;;;;;24.50;57.37;101295.59;4977540;28;45232;-48
2023/08/12 11:06:10;;;;;;;;;6.75;6.50;;;;;24.51;57.25;101305.25;4976897;28;46190;-53
2023/08/12 11:08:36;;;;;;;;;8.25;7.00;;;;;24.53;56.92;101300.66;4959958;28;45972;-45
2023/08/12 11:11:02;;;;;;;;;4.00;4.00;;;;;24.54;57.37;101297.94;4977530;28;45615;-49
2023/08/12 11:13:28;;;;;;;;;3.00;3.00;;;;;24.54;57.29;101299.72;4977241;28;45501;-51
2023/08/12 11:16:06;;;;;;;;;2.00;2.00;;;;;24.56;56.45;101287.22;4976944;28;47049;-47
2023/08/12 11:18:32;;;;;;;;;1.00;1.00;;;;;24.55;56.66;101281.09;4977593;28;45333;-45
2023/08/12 11:20:58;;;;;;;;;0.75;0.75;;;;;24.57;56.23;101286.28;4977389;28;45482;-49